sensor_id;sensor_type;location;lat;lon;timestamp;temperature;humidity
14188;DHT22;7175;51.978;5.330;2023-07-31T00:00:37;16.00;99.90
14188;DHT22;7175;51.978;5.330;2023-07-31T00:03:10;16.00;99.90
14188;DHT22;7175;51.978;5.330;2023-07-31T00:05:39;16.10;99.90
14188;DHT22;7175;51.978;5.330;2023-07-31T00:08:09;16.10;99.90
14188;DHT22;7175;51.978;5.330;2023-07-31T00:10:39;16.20;99.90
14188;DHT22;7175;51.978;5.330;2023-07-31T00:13:07;16.20;99.90
14188;DHT22;7175;51.978;5.330;2023-07-31T00:15:37;16.30;99.90
14188;DHT22;7175;51.978;5.330;2023-07-31T00:18:06;16.50;99.90
14188;DHT22;7175;51.978;5.330;2023-07-31T00:20:37;16.50;99.90
14188;DHT22;7175;51.978;5.330;2023-07-31T00:23:05;16.60;99.90
14188;DHT22;7175;51.978;5.330;2023-07-31T00:25:35;16.70;99.90
14188;DHT22;7175;51.978;5.330;2023-07-31T00:28:06;16.70;99.90
14188;DHT22;7175;51.978;5.330;2023-07-31T00:30:35;16.80;99.90
14188;DHT22;7175;51.978;5.330;2023-07-31T00:33:03;16.90;99.90
14188;DHT22;7175;51.978;5.330;2023-07-31T00:35:32;16.90;99.90
14188;DHT22;7175;51.978;5.330;2023-07-31T00:38:01;16.90;99.90
14188;DHT22;7175;51.978;5.330;2023-07-31T00:40:29;16.90;99.90
14188;DHT22;7175;51.978;5.330;2023-07-31T00:42:59;17.00;99.90
14188;DHT22;7175;51.978;5.330;2023-07-31T00:45:29;17.00;99.90
14188;DHT22;7175;51.978;5.330;2023-07-31T00:48:00;17.00;99.90
14188;DHT22;7175;51.978;5.330;2023-07-31T00:50:30;17.00;99.90
14188;DHT22;7175;51.978;5.330;2023-07-31T00:52:59;17.00;99.90
14188;DHT22;7175;51.978;5.330;2023-07-31T00:55:27;17.10;99.90
14188;DHT22;7175;51.978;5.330;2023-07-31T00:57:58;17.10;99.90
14188;DHT22;7175;51.978;5.330;2023-07-31T01:00:26;17.10;99.90
14188;DHT22;7175;51.978;5.330;2023-07-31T01:02:55;17.10;99.90
14188;DHT22;7175;51.978;5.330;2023-07-31T01:05:29;17.10;99.90
14188;DHT22;7175;51.978;5.330;2023-07-31T01:08:05;17.10;99.90
14188;DHT22;7175;51.978;5.330;2023-07-31T01:10:41;17.10;99.90
14188;DHT22;7175;51.978;5.330;2023-07-31T01:13:17;17.10;99.90
14188;DHT22;7175;51.978;5.330;2023-07-31T01:15:47;17.10;99.90
14188;DHT22;7175;51.978;5.330;2023-07-31T01:18:16;17.10;99.90
14188;DHT22;7175;51.978;5.330;2023-07-31T01:20:49;17.10;99.90
14188;DHT22;7175;51.978;5.330;2023-07-31T01:23:44;17.20;99.90
14188;DHT22;7175;51.978;5.330;2023-07-31T01:26:20;17.10;99.90
14188;DHT22;7175;51.978;5.330;2023-07-31T01:28:56;17.20;99.90
14188;DHT22;7175;51.978;5.330;2023-07-31T01:31:30;17.20;99.90
14188;DHT22;7175;51.978;5.330;2023-07-31T01:34:01;17.20;99.90
14188;DHT22;7175;51.978;5.330;2023-07-31T01:36:32;17.20;99.90
14188;DHT22;7175;51.978;5.330;2023-07-31T01:39:04;17.20;99.90
14188;DHT22;7175;51.978;5.330;2023-07-31T01:41:36;17.20;99.90
14188;DHT22;7175;51.978;5.330;2023-07-31T01:44:06;17.20;99.90
14188;DHT22;7175;51.978;5.330;2023-07-31T01:46:35;17.10;99.90
14188;DHT22;7175;51.978;5.330;2023-07-31T01:49:07;17.10;99.90
14188;DHT22;7175;51.978;5.330;2023-07-31T01:51:35;17.10;99.90
14188;DHT22;7175;51.978;5.330;2023-07-31T01:54:03;17.10;99.90
14188;DHT22;7175;51.978;5.330;2023-07-31T01:56:32;17.00;99.90
14188;DHT22;7175;51.978;5.330;2023-07-31T01:59:01;17.00;99.90
14188;DHT22;7175;51.978;5.330;2023-07-31T02:01:35;17.00;99.90
14188;DHT22;7175;51.978;5.330;2023-07-31T02:04:03;16.90;99.90
14188;DHT22;7175;51.978;5.330;2023-07-31T02:06:34;16.90;99.90
14188;DHT22;7175;51.978;5.330;2023-07-31T02:09:05;16.90;99.90
14188;DHT22;7175;51.978;5.330;2023-07-31T02:11:36;16.90;99.90
14188;DHT22;7175;51.978;5.330;2023-07-31T02:14:06;16.90;99.90
14188;DHT22;7175;51.978;5.330;2023-07-31T02:16:36;16.90;99.90
14188;DHT22;7175;51.978;5.330;2023-07-31T02:19:07;16.90;99.90
14188;DHT22;7175;51.978;5.330;2023-07-31T02:21:35;16.90;99.90
14188;DHT22;7175;51.978;5.330;2023-07-31T02:24:04;16.90;99.90
14188;DHT22;7175;51.978;5.330;2023-07-31T02:26:33;16.90;99.90
14188;DHT22;7175;51.978;5.330;2023-07-31T02:29:01;16.90;99.90
14188;DHT22;7175;51.978;5.330;2023-07-31T02:31:31;16.90;99.90
14188;DHT22;7175;51.978;5.330;2023-07-31T02:34:03;16.90;99.90
14188;DHT22;7175;51.978;5.330;2023-07-31T02:36:33;17.00;99.90
14188;DHT22;7175;51.978;5.330;2023-07-31T02:39:01;16.90;99.90
14188;DHT22;7175;51.978;5.330;2023-07-31T02:41:31;17.00;99.90
14188;DHT22;7175;51.978;5.330;2023-07-31T02:44:02;17.00;99.90
14188;DHT22;7175;51.978;5.330;2023-07-31T02:46:33;17.00;99.90
14188;DHT22;7175;51.978;5.330;2023-07-31T02:49:05;17.00;99.90
14188;DHT22;7175;51.978;5.330;2023-07-31T02:51:33;17.00;99.90
14188;DHT22;7175;51.978;5.330;2023-07-31T02:54:01;17.00;99.90
14188;DHT22;7175;51.978;5.330;2023-07-31T02:56:30;17.00;99.90
14188;DHT22;7175;51.978;5.330;2023-07-31T02:59:01;17.00;99.90
14188;DHT22;7175;51.978;5.330;2023-07-31T03:01:29;17.00;99.90
14188;DHT22;7175;51.978;5.330;2023-07-31T03:04:00;17.00;99.90
14188;DHT22;7175;51.978;5.330;2023-07-31T03:06:29;17.00;99.90
14188;DHT22;7175;51.978;5.330;2023-07-31T03:08:57;17.00;99.90
14188;DHT22;7175;51.978;5.330;2023-07-31T03:11:26;17.00;99.90
14188;DHT22;7175;51.978;5.330;2023-07-31T03:13:54;17.00;99.90
14188;DHT22;7175;51.978;5.330;2023-07-31T03:16:22;16.90;99.90
14188;DHT22;7175;51.978;5.330;2023-07-31T03:18:51;17.00;99.90
14188;DHT22;7175;51.978;5.330;2023-07-31T03:21:25;17.00;99.90
14188;DHT22;7175;51.978;5.330;2023-07-31T03:23:53;16.90;99.90
14188;DHT22;7175;51.978;5.330;2023-07-31T03:26:22;16.90;99.90
14188;DHT22;7175;51.978;5.330;2023-07-31T03:28:51;16.90;99.90
14188;DHT22;7175;51.978;5.330;2023-07-31T03:31:19;16.90;99.90
14188;DHT22;7175;51.978;5.330;2023-07-31T03:33:50;16.90;99.90
14188;DHT22;7175;51.978;5.330;2023-07-31T03:36:20;16.90;99.90
14188;DHT22;7175;51.978;5.330;2023-07-31T03:38:55;16.90;99.90
14188;DHT22;7175;51.978;5.330;2023-07-31T03:41:23;16.90;99.90
14188;DHT22;7175;51.978;5.330;2023-07-31T03:43:52;16.90;99.90
14188;DHT22;7175;51.978;5.330;2023-07-31T03:46:23;16.90;99.90
14188;DHT22;7175;51.978;5.330;2023-07-31T03:48:55;16.90;99.90
14188;DHT22;7175;51.978;5.330;2023-07-31T03:51:26;16.80;99.90
14188;DHT22;7175;51.978;5.330;2023-07-31T03:53:57;16.90;99.90
14188;DHT22;7175;51.978;5.330;2023-07-31T03:56:26;16.90;99.90
14188;DHT22;7175;51.978;5.330;2023-07-31T03:58:55;16.90;99.90
14188;DHT22;7175;51.978;5.330;2023-07-31T04:01:26;16.90;99.90
14188;DHT22;7175;51.978;5.330;2023-07-31T04:03:57;16.90;99.90
14188;DHT22;7175;51.978;5.330;2023-07-31T04:06:25;16.90;99.90
14188;DHT22;7175;51.978;5.330;2023-07-31T04:08:57;16.90;99.90
14188;DHT22;7175;51.978;5.330;2023-07-31T04:11:25;16.90;99.90
14188;DHT22;7175;51.978;5.330;2023-07-31T04:13:53;16.90;99.90
14188;DHT22;7175;51.978;5.330;2023-07-31T04:16:24;16.80;99.90
14188;DHT22;7175;51.978;5.330;2023-07-31T04:18:55;16.80;99.90
14188;DHT22;7175;51.978;5.330;2023-07-31T04:21:26;16.90;99.90
14188;DHT22;7175;51.978;5.330;2023-07-31T04:23:56;16.80;99.90
14188;DHT22;7175;51.978;5.330;2023-07-31T04:26:27;16.90;99.90
14188;DHT22;7175;51.978;5.330;2023-07-31T04:28:55;16.90;99.90
14188;DHT22;7175;51.978;5.330;2023-07-31T04:31:24;16.90;99.90
14188;DHT22;7175;51.978;5.330;2023-07-31T04:33:52;16.90;99.90
14188;DHT22;7175;51.978;5.330;2023-07-31T04:36:20;16.90;99.90
14188;DHT22;7175;51.978;5.330;2023-07-31T04:38:49;16.90;99.90
14188;DHT22;7175;51.978;5.330;2023-07-31T04:41:21;16.90;99.90
14188;DHT22;7175;51.978;5.330;2023-07-31T04:43:50;16.90;99.90
14188;DHT22;7175;51.978;5.330;2023-07-31T04:46:19;16.80;99.90
14188;DHT22;7175;51.978;5.330;2023-07-31T04:48:47;16.80;99.90
14188;DHT22;7175;51.978;5.330;2023-07-31T04:51:16;16.80;99.90
14188;DHT22;7175;51.978;5.330;2023-07-31T04:53:44;16.80;99.90
14188;DHT22;7175;51.978;5.330;2023-07-31T04:56:12;16.80;99.90
14188;DHT22;7175;51.978;5.330;2023-07-31T04:58:46;16.80;99.90
14188;DHT22;7175;51.978;5.330;2023-07-31T05:01:15;16.80;99.90
14188;DHT22;7175;51.978;5.330;2023-07-31T05:03:43;16.80;99.90
14188;DHT22;7175;51.978;5.330;2023-07-31T05:06:12;16.70;99.90
14188;DHT22;7175;51.978;5.330;2023-07-31T05:08:42;16.70;99.90
14188;DHT22;7175;51.978;5.330;2023-07-31T05:11:10;16.70;99.90
14188;DHT22;7175;51.978;5.330;2023-07-31T05:13:38;16.70;99.90
14188;DHT22;7175;51.978;5.330;2023-07-31T05:16:11;16.70;99.90
14188;DHT22;7175;51.978;5.330;2023-07-31T05:18:39;16.60;99.90
14188;DHT22;7175;51.978;5.330;2023-07-31T05:21:07;16.60;99.90
14188;DHT22;7175;51.978;5.330;2023-07-31T05:23:37;16.60;99.90
14188;DHT22;7175;51.978;5.330;2023-07-31T05:26:06;16.50;99.90
14188;DHT22;7175;51.978;5.330;2023-07-31T05:28:36;16.50;99.90
14188;DHT22;7175;51.978;5.330;2023-07-31T05:31:05;16.50;99.90
14188;DHT22;7175;51.978;5.330;2023-07-31T05:33:36;16.50;99.90
14188;DHT22;7175;51.978;5.330;2023-07-31T05:36:05;16.50;99.90
14188;DHT22;7175;51.978;5.330;2023-07-31T05:38:33;16.50;99.90
14188;DHT22;7175;51.978;5.330;2023-07-31T05:41:01;16.40;99.90
14188;DHT22;7175;51.978;5.330;2023-07-31T05:43:32;16.50;99.90
14188;DHT22;7175;51.978;5.330;2023-07-31T05:46:01;16.40;99.90
14188;DHT22;7175;51.978;5.330;2023-07-31T05:48:32;16.40;99.90
14188;DHT22;7175;51.978;5.330;2023-07-31T05:51:02;16.50;99.90
14188;DHT22;7175;51.978;5.330;2023-07-31T05:53:31;16.50;99.90
14188;DHT22;7175;51.978;5.330;2023-07-31T05:56:00;16.50;99.90
14188;DHT22;7175;51.978;5.330;2023-07-31T05:58:28;16.50;99.90
14188;DHT22;7175;51.978;5.330;2023-07-31T06:00:57;16.50;99.90
14188;DHT22;7175;51.978;5.330;2023-07-31T06:03:25;16.50;99.90
14188;DHT22;7175;51.978;5.330;2023-07-31T06:05:54;16.50;99.90
14188;DHT22;7175;51.978;5.330;2023-07-31T06:08:24;16.60;99.90
14188;DHT22;7175;51.978;5.330;2023-07-31T06:10:53;16.60;99.90
14188;DHT22;7175;51.978;5.330;2023-07-31T06:13:21;16.60;99.90
14188;DHT22;7175;51.978;5.330;2023-07-31T06:15:50;16.60;99.90
14188;DHT22;7175;51.978;5.330;2023-07-31T06:18:21;16.60;99.90
14188;DHT22;7175;51.978;5.330;2023-07-31T06:20:51;16.60;99.90
14188;DHT22;7175;51.978;5.330;2023-07-31T06:23:23;16.60;99.90
14188;DHT22;7175;51.978;5.330;2023-07-31T06:25:52;16.70;99.90
14188;DHT22;7175;51.978;5.330;2023-07-31T06:28:27;16.70;99.90
14188;DHT22;7175;51.978;5.330;2023-07-31T06:30:57;16.70;99.90
14188;DHT22;7175;51.978;5.330;2023-07-31T06:33:26;16.70;99.90
14188;DHT22;7175;51.978;5.330;2023-07-31T06:35:56;16.70;99.90
14188;DHT22;7175;51.978;5.330;2023-07-31T06:38:26;16.70;99.90
14188;DHT22;7175;51.978;5.330;2023-07-31T06:40:55;16.80;99.90
14188;DHT22;7175;51.978;5.330;2023-07-31T06:43:24;16.80;99.90
14188;DHT22;7175;51.978;5.330;2023-07-31T06:45:55;16.80;99.90
14188;DHT22;7175;51.978;5.330;2023-07-31T06:48:24;16.80;99.90
14188;DHT22;7175;51.978;5.330;2023-07-31T06:50:52;16.80;99.90
14188;DHT22;7175;51.978;5.330;2023-07-31T06:53:28;16.90;99.90
14188;DHT22;7175;51.978;5.330;2023-07-31T06:55:57;16.90;99.90
14188;DHT22;7175;51.978;5.330;2023-07-31T06:58:26;16.90;99.90
14188;DHT22;7175;51.978;5.330;2023-07-31T07:00:54;17.00;99.90
14188;DHT22;7175;51.978;5.330;2023-07-31T07:03:24;17.10;99.90
14188;DHT22;7175;51.978;5.330;2023-07-31T07:05:55;17.10;99.90
14188;DHT22;7175;51.978;5.330;2023-07-31T07:08:30;17.20;99.90
14188;DHT22;7175;51.978;5.330;2023-07-31T07:10:59;17.20;99.90
14188;DHT22;7175;51.978;5.330;2023-07-31T07:13:28;17.20;99.90
14188;DHT22;7175;51.978;5.330;2023-07-31T07:15:56;17.30;99.90
14188;DHT22;7175;51.978;5.330;2023-07-31T07:18:30;17.20;99.90
14188;DHT22;7175;51.978;5.330;2023-07-31T07:20:59;17.30;99.90
14188;DHT22;7175;51.978;5.330;2023-07-31T07:23:31;17.30;99.90
14188;DHT22;7175;51.978;5.330;2023-07-31T07:25:59;17.30;99.90
14188;DHT22;7175;51.978;5.330;2023-07-31T07:28:28;17.40;99.90
14188;DHT22;7175;51.978;5.330;2023-07-31T07:30:58;17.40;99.90
14188;DHT22;7175;51.978;5.330;2023-07-31T07:33:29;17.40;99.90
14188;DHT22;7175;51.978;5.330;2023-07-31T07:36:01;17.40;99.90
14188;DHT22;7175;51.978;5.330;2023-07-31T07:38:34;17.40;99.90
14188;DHT22;7175;51.978;5.330;2023-07-31T07:41:02;17.40;99.90
14188;DHT22;7175;51.978;5.330;2023-07-31T07:43:33;17.40;99.90
14188;DHT22;7175;51.978;5.330;2023-07-31T07:46:01;17.50;99.90
14188;DHT22;7175;51.978;5.330;2023-07-31T07:48:30;17.50;99.90
14188;DHT22;7175;51.978;5.330;2023-07-31T07:51:00;17.60;99.90
14188;DHT22;7175;51.978;5.330;2023-07-31T07:53:34;17.60;99.90
14188;DHT22;7175;51.978;5.330;2023-07-31T07:56:03;17.60;99.90
14188;DHT22;7175;51.978;5.330;2023-07-31T07:58:31;17.50;99.90
14188;DHT22;7175;51.978;5.330;2023-07-31T08:01:01;17.60;99.90
14188;DHT22;7175;51.978;5.330;2023-07-31T08:03:30;17.60;99.90
14188;DHT22;7175;51.978;5.330;2023-07-31T08:06:01;17.60;99.90
14188;DHT22;7175;51.978;5.330;2023-07-31T08:08:54;17.70;99.90
14188;DHT22;7175;51.978;5.330;2023-07-31T08:11:23;17.60;99.90
14188;DHT22;7175;51.978;5.330;2023-07-31T08:13:51;17.60;99.90
14188;DHT22;7175;51.978;5.330;2023-07-31T08:16:21;17.70;99.90
14188;DHT22;7175;51.978;5.330;2023-07-31T08:18:49;17.70;99.90
14188;DHT22;7175;51.978;5.330;2023-07-31T08:21:19;17.80;99.90
14188;DHT22;7175;51.978;5.330;2023-07-31T08:23:50;17.80;99.90
14188;DHT22;7175;51.978;5.330;2023-07-31T08:26:20;17.80;99.90
14188;DHT22;7175;51.978;5.330;2023-07-31T08:28:49;17.80;99.90
14188;DHT22;7175;51.978;5.330;2023-07-31T08:31:17;17.90;99.90
14188;DHT22;7175;51.978;5.330;2023-07-31T08:33:48;17.90;99.90
14188;DHT22;7175;51.978;5.330;2023-07-31T08:36:17;17.90;99.90
14188;DHT22;7175;51.978;5.330;2023-07-31T08:38:46;17.80;99.90
14188;DHT22;7175;51.978;5.330;2023-07-31T08:41:16;17.90;99.90
14188;DHT22;7175;51.978;5.330;2023-07-31T08:43:52;17.90;99.90
14188;DHT22;7175;51.978;5.330;2023-07-31T08:46:23;17.90;99.90
14188;DHT22;7175;51.978;5.330;2023-07-31T08:48:54;18.00;99.90
14188;DHT22;7175;51.978;5.330;2023-07-31T08:51:26;17.90;99.90
14188;DHT22;7175;51.978;5.330;2023-07-31T08:53:55;17.90;99.90
14188;DHT22;7175;51.978;5.330;2023-07-31T08:56:31;18.00;99.90
14188;DHT22;7175;51.978;5.330;2023-07-31T08:59:02;18.00;99.90
14188;DHT22;7175;51.978;5.330;2023-07-31T09:01:38;18.00;99.90
14188;DHT22;7175;51.978;5.330;2023-07-31T09:04:16;18.00;99.90
14188;DHT22;7175;51.978;5.330;2023-07-31T09:06:47;18.00;99.90
14188;DHT22;7175;51.978;5.330;2023-07-31T09:09:16;18.00;99.90
14188;DHT22;7175;51.978;5.330;2023-07-31T09:11:49;18.00;99.90
14188;DHT22;7175;51.978;5.330;2023-07-31T09:14:20;18.00;99.90
14188;DHT22;7175;51.978;5.330;2023-07-31T09:16:53;18.10;99.90
14188;DHT22;7175;51.978;5.330;2023-07-31T09:19:26;18.20;99.90
14188;DHT22;7175;51.978;5.330;2023-07-31T09:21:54;18.20;99.90
14188;DHT22;7175;51.978;5.330;2023-07-31T09:24:27;18.20;99.90
14188;DHT22;7175;51.978;5.330;2023-07-31T09:27:02;18.20;99.90
14188;DHT22;7175;51.978;5.330;2023-07-31T09:29:32;18.20;99.90
14188;DHT22;7175;51.978;5.330;2023-07-31T09:32:00;18.20;99.90
14188;DHT22;7175;51.978;5.330;2023-07-31T09:34:30;18.20;99.90
14188;DHT22;7175;51.978;5.330;2023-07-31T09:37:11;18.30;99.90
14188;DHT22;7175;51.978;5.330;2023-07-31T09:39:47;18.40;99.90
14188;DHT22;7175;51.978;5.330;2023-07-31T09:42:26;18.40;99.90
14188;DHT22;7175;51.978;5.330;2023-07-31T09:45:09;18.50;99.90
14188;DHT22;7175;51.978;5.330;2023-07-31T09:47:46;18.60;99.90
14188;DHT22;7175;51.978;5.330;2023-07-31T09:50:16;18.50;99.90
14188;DHT22;7175;51.978;5.330;2023-07-31T09:52:45;18.60;99.90
14188;DHT22;7175;51.978;5.330;2023-07-31T09:55:15;18.50;99.90
14188;DHT22;7175;51.978;5.330;2023-07-31T09:57:47;18.60;99.90
14188;DHT22;7175;51.978;5.330;2023-07-31T10:00:18;18.70;99.90
14188;DHT22;7175;51.978;5.330;2023-07-31T10:02:51;18.80;99.90
14188;DHT22;7175;51.978;5.330;2023-07-31T10:05:19;18.90;99.90
14188;DHT22;7175;51.978;5.330;2023-07-31T10:07:53;18.90;99.90
14188;DHT22;7175;51.978;5.330;2023-07-31T10:10:25;18.90;99.90
14188;DHT22;7175;51.978;5.330;2023-07-31T10:12:56;19.00;99.90
14188;DHT22;7175;51.978;5.330;2023-07-31T10:15:26;19.00;99.90
14188;DHT22;7175;51.978;5.330;2023-07-31T10:17:56;19.10;99.90
14188;DHT22;7175;51.978;5.330;2023-07-31T10:20:33;19.10;99.90
14188;DHT22;7175;51.978;5.330;2023-07-31T10:23:11;19.10;99.90
14188;DHT22;7175;51.978;5.330;2023-07-31T10:25:42;19.20;99.90
14188;DHT22;7175;51.978;5.330;2023-07-31T10:28:15;19.10;99.90
14188;DHT22;7175;51.978;5.330;2023-07-31T10:30:46;19.10;99.90
14188;DHT22;7175;51.978;5.330;2023-07-31T10:33:16;19.20;99.90
14188;DHT22;7175;51.978;5.330;2023-07-31T10:35:47;19.40;99.90
14188;DHT22;7175;51.978;5.330;2023-07-31T10:38:19;19.40;99.90
14188;DHT22;7175;51.978;5.330;2023-07-31T10:40:49;19.40;99.90
14188;DHT22;7175;51.978;5.330;2023-07-31T10:43:25;19.30;99.90
14188;DHT22;7175;51.978;5.330;2023-07-31T10:45:54;19.30;99.90
14188;DHT22;7175;51.978;5.330;2023-07-31T10:48:23;19.50;99.90
14188;DHT22;7175;51.978;5.330;2023-07-31T10:50:54;19.50;99.90
14188;DHT22;7175;51.978;5.330;2023-07-31T10:53:28;19.50;99.90
14188;DHT22;7175;51.978;5.330;2023-07-31T10:55:58;19.40;99.90
14188;DHT22;7175;51.978;5.330;2023-07-31T10:58:28;19.30;99.90
14188;DHT22;7175;51.978;5.330;2023-07-31T11:01:00;19.20;99.90
14188;DHT22;7175;51.978;5.330;2023-07-31T11:03:43;19.20;99.90
14188;DHT22;7175;51.978;5.330;2023-07-31T11:06:15;19.10;99.90
14188;DHT22;7175;51.978;5.330;2023-07-31T11:08:53;19.00;99.90
14188;DHT22;7175;51.978;5.330;2023-07-31T11:11:21;19.10;99.90
14188;DHT22;7175;51.978;5.330;2023-07-31T11:13:54;19.00;99.90
14188;DHT22;7175;51.978;5.330;2023-07-31T11:16:25;19.00;99.90
14188;DHT22;7175;51.978;5.330;2023-07-31T11:18:54;19.00;99.90
14188;DHT22;7175;51.978;5.330;2023-07-31T11:21:24;19.00;99.90
14188;DHT22;7175;51.978;5.330;2023-07-31T11:24:07;19.00;99.90
14188;DHT22;7175;51.978;5.330;2023-07-31T11:26:36;19.10;99.90
14188;DHT22;7175;51.978;5.330;2023-07-31T11:29:15;19.20;99.90
14188;DHT22;7175;51.978;5.330;2023-07-31T11:31:46;19.10;99.90
14188;DHT22;7175;51.978;5.330;2023-07-31T11:34:16;19.20;99.90
14188;DHT22;7175;51.978;5.330;2023-07-31T11:36:53;19.30;99.90
14188;DHT22;7175;51.978;5.330;2023-07-31T11:39:22;19.40;99.90
14188;DHT22;7175;51.978;5.330;2023-07-31T11:41:58;19.40;99.90
14188;DHT22;7175;51.978;5.330;2023-07-31T11:44:42;19.70;99.90
14188;DHT22;7175;51.978;5.330;2023-07-31T11:47:16;19.60;99.90
14188;DHT22;7175;51.978;5.330;2023-07-31T11:49:44;19.60;99.90
14188;DHT22;7175;51.978;5.330;2023-07-31T11:52:13;19.70;99.90
14188;DHT22;7175;51.978;5.330;2023-07-31T11:54:43;19.60;99.90
14188;DHT22;7175;51.978;5.330;2023-07-31T11:57:11;19.80;99.90
14188;DHT22;7175;51.978;5.330;2023-07-31T11:59:43;19.80;99.90
14188;DHT22;7175;51.978;5.330;2023-07-31T12:02:13;19.70;99.90
14188;DHT22;7175;51.978;5.330;2023-07-31T12:04:44;19.60;99.90
14188;DHT22;7175;51.978;5.330;2023-07-31T12:07:15;19.50;99.90
14188;DHT22;7175;51.978;5.330;2023-07-31T12:09:54;19.60;99.90
14188;DHT22;7175;51.978;5.330;2023-07-31T12:12:24;19.50;99.90
14188;DHT22;7175;51.978;5.330;2023-07-31T12:14:55;19.50;99.90
14188;DHT22;7175;51.978;5.330;2023-07-31T12:17:25;19.40;99.90
14188;DHT22;7175;51.978;5.330;2023-07-31T12:19:59;19.30;99.90
14188;DHT22;7175;51.978;5.330;2023-07-31T12:22:28;19.30;99.90
14188;DHT22;7175;51.978;5.330;2023-07-31T12:24:58;19.20;99.90
14188;DHT22;7175;51.978;5.330;2023-07-31T12:27:32;19.20;99.90
14188;DHT22;7175;51.978;5.330;2023-07-31T12:30:03;19.30;99.90
14188;DHT22;7175;51.978;5.330;2023-07-31T12:32:34;19.40;99.90
14188;DHT22;7175;51.978;5.330;2023-07-31T12:35:07;19.50;99.90
14188;DHT22;7175;51.978;5.330;2023-07-31T12:37:36;19.50;99.90
14188;DHT22;7175;51.978;5.330;2023-07-31T12:40:06;19.70;99.90
14188;DHT22;7175;51.978;5.330;2023-07-31T12:42:36;19.70;99.90
14188;DHT22;7175;51.978;5.330;2023-07-31T12:45:21;19.80;99.90
14188;DHT22;7175;51.978;5.330;2023-07-31T12:47:54;20.00;99.90
14188;DHT22;7175;51.978;5.330;2023-07-31T12:50:23;20.20;99.90
14188;DHT22;7175;51.978;5.330;2023-07-31T12:52:57;20.10;99.90
14188;DHT22;7175;51.978;5.330;2023-07-31T12:55:26;20.20;99.90
14188;DHT22;7175;51.978;5.330;2023-07-31T12:57:55;20.10;99.90
14188;DHT22;7175;51.978;5.330;2023-07-31T13:00:31;20.20;99.90
14188;DHT22;7175;51.978;5.330;2023-07-31T13:02:59;20.10;99.90
14188;DHT22;7175;51.978;5.330;2023-07-31T13:05:28;20.10;99.90
14188;DHT22;7175;51.978;5.330;2023-07-31T13:07:57;20.20;99.90
14188;DHT22;7175;51.978;5.330;2023-07-31T13:10:28;20.20;99.90
14188;DHT22;7175;51.978;5.330;2023-07-31T13:12:58;20.20;99.90
14188;DHT22;7175;51.978;5.330;2023-07-31T13:15:30;20.10;99.90
14188;DHT22;7175;51.978;5.330;2023-07-31T13:17:59;20.00;99.90
14188;DHT22;7175;51.978;5.330;2023-07-31T13:20:27;19.90;99.90
14188;DHT22;7175;51.978;5.330;2023-07-31T13:22:56;19.80;99.90
14188;DHT22;7175;51.978;5.330;2023-07-31T13:25:30;19.70;99.90
14188;DHT22;7175;51.978;5.330;2023-07-31T13:27:58;19.60;99.90
14188;DHT22;7175;51.978;5.330;2023-07-31T13:30:31;19.60;99.90
14188;DHT22;7175;51.978;5.330;2023-07-31T13:33:00;19.60;99.90
14188;DHT22;7175;51.978;5.330;2023-07-31T13:35:29;19.50;99.90
14188;DHT22;7175;51.978;5.330;2023-07-31T13:38:00;19.50;99.90
14188;DHT22;7175;51.978;5.330;2023-07-31T13:40:28;19.50;99.90
14188;DHT22;7175;51.978;5.330;2023-07-31T13:42:57;19.50;99.90
14188;DHT22;7175;51.978;5.330;2023-07-31T13:45:27;19.50;99.90
14188;DHT22;7175;51.978;5.330;2023-07-31T13:47:57;19.40;99.90
14188;DHT22;7175;51.978;5.330;2023-07-31T13:50:27;19.40;99.90
14188;DHT22;7175;51.978;5.330;2023-07-31T13:52:58;19.50;99.90
14188;DHT22;7175;51.978;5.330;2023-07-31T13:55:26;19.40;99.90
14188;DHT22;7175;51.978;5.330;2023-07-31T13:57:54;19.40;99.90
14188;DHT22;7175;51.978;5.330;2023-07-31T14:00:25;19.40;99.90
14188;DHT22;7175;51.978;5.330;2023-07-31T14:03:00;19.40;99.90
14188;DHT22;7175;51.978;5.330;2023-07-31T14:05:37;19.30;99.90
14188;DHT22;7175;51.978;5.330;2023-07-31T14:08:05;19.30;99.90
14188;DHT22;7175;51.978;5.330;2023-07-31T14:10:33;19.30;99.90
14188;DHT22;7175;51.978;5.330;2023-07-31T14:13:10;19.40;99.90
14188;DHT22;7175;51.978;5.330;2023-07-31T14:15:43;19.30;99.90
14188;DHT22;7175;51.978;5.330;2023-07-31T14:18:18;19.30;99.90
14188;DHT22;7175;51.978;5.330;2023-07-31T14:20:47;19.30;99.90
14188;DHT22;7175;51.978;5.330;2023-07-31T14:23:20;19.30;99.90
14188;DHT22;7175;51.978;5.330;2023-07-31T14:25:53;19.30;99.90
14188;DHT22;7175;51.978;5.330;2023-07-31T14:28:25;19.30;99.90
14188;DHT22;7175;51.978;5.330;2023-07-31T14:30:53;19.40;99.90
14188;DHT22;7175;51.978;5.330;2023-07-31T14:33:24;19.40;99.90
14188;DHT22;7175;51.978;5.330;2023-07-31T14:35:55;19.30;99.90
14188;DHT22;7175;51.978;5.330;2023-07-31T14:38:24;19.40;99.90
14188;DHT22;7175;51.978;5.330;2023-07-31T14:41:03;19.30;99.90
14188;DHT22;7175;51.978;5.330;2023-07-31T14:43:34;19.30;99.90
14188;DHT22;7175;51.978;5.330;2023-07-31T14:46:03;19.30;99.90
14188;DHT22;7175;51.978;5.330;2023-07-31T14:48:37;19.30;99.90
14188;DHT22;7175;51.978;5.330;2023-07-31T14:51:07;19.30;99.90
14188;DHT22;7175;51.978;5.330;2023-07-31T14:53:36;19.30;99.90
14188;DHT22;7175;51.978;5.330;2023-07-31T14:56:06;19.30;99.90
14188;DHT22;7175;51.978;5.330;2023-07-31T14:58:35;19.20;99.90
14188;DHT22;7175;51.978;5.330;2023-07-31T15:01:08;19.30;99.90
14188;DHT22;7175;51.978;5.330;2023-07-31T15:03:41;19.30;99.90
14188;DHT22;7175;51.978;5.330;2023-07-31T15:06:18;19.30;99.90
14188;DHT22;7175;51.978;5.330;2023-07-31T15:08:47;19.30;99.90
14188;DHT22;7175;51.978;5.330;2023-07-31T15:11:15;19.30;99.90
14188;DHT22;7175;51.978;5.330;2023-07-31T15:13:45;19.20;99.90
14188;DHT22;7175;51.978;5.330;2023-07-31T15:16:15;19.30;99.90
14188;DHT22;7175;51.978;5.330;2023-07-31T15:18:46;19.30;99.90
14188;DHT22;7175;51.978;5.330;2023-07-31T15:21:14;19.30;99.90
14188;DHT22;7175;51.978;5.330;2023-07-31T15:23:43;19.30;99.90
14188;DHT22;7175;51.978;5.330;2023-07-31T15:26:13;19.30;99.90
14188;DHT22;7175;51.978;5.330;2023-07-31T15:28:41;19.30;99.90
14188;DHT22;7175;51.978;5.330;2023-07-31T15:31:10;19.20;99.90
14188;DHT22;7175;51.978;5.330;2023-07-31T15:33:39;19.30;99.90
14188;DHT22;7175;51.978;5.330;2023-07-31T15:36:09;19.30;99.90
14188;DHT22;7175;51.978;5.330;2023-07-31T15:38:37;19.30;99.90
14188;DHT22;7175;51.978;5.330;2023-07-31T15:41:05;19.20;99.90
14188;DHT22;7175;51.978;5.330;2023-07-31T15:43:34;19.20;99.90
14188;DHT22;7175;51.978;5.330;2023-07-31T15:46:02;19.10;99.90
14188;DHT22;7175;51.978;5.330;2023-07-31T15:48:31;19.20;99.90
14188;DHT22;7175;51.978;5.330;2023-07-31T15:50:59;19.20;99.90
14188;DHT22;7175;51.978;5.330;2023-07-31T15:53:29;19.10;99.90
14188;DHT22;7175;51.978;5.330;2023-07-31T15:56:00;19.20;99.90
14188;DHT22;7175;51.978;5.330;2023-07-31T15:58:28;19.10;99.90
14188;DHT22;7175;51.978;5.330;2023-07-31T16:00:56;19.10;99.90
14188;DHT22;7175;51.978;5.330;2023-07-31T16:03:25;19.10;99.90
14188;DHT22;7175;51.978;5.330;2023-07-31T16:05:54;19.00;99.90